createdAt,value
2019-03-12T00:00:03.089Z,1.8
2019-03-12T00:15:03.351Z,1.9
2019-03-12T00:30:02.906Z,2.2
2019-03-12T00:45:03.177Z,2.4
2019-03-12T01:00:02.756Z,2.5
2019-03-12T01:15:03.069Z,1.9
2019-03-12T01:30:03.389Z,1.5
2019-03-12T01:45:02.654Z,1.2
2019-03-12T02:00:03.225Z,1.2
2019-03-12T02:15:02.468Z,1.2
2019-03-12T02:30:02.919Z,1.2
2019-03-12T02:45:03.218Z,1.4
2019-03-12T03:00:02.527Z,1.6
2019-03-12T03:15:02.818Z,1.6
2019-03-12T03:30:03.222Z,1.6
2019-03-12T03:45:02.624Z,1.5
2019-03-12T04:00:02.907Z,1.4
2019-03-12T04:15:03.204Z,1.4
2019-03-12T04:30:02.661Z,1.4
2019-03-12T04:45:02.975Z,1.4
2019-03-12T05:00:02.497Z,1.6
2019-03-12T05:15:03.069Z,1.5
2019-03-12T05:30:03.453Z,1.6
2019-03-12T05:45:02.734Z,1.6
2019-03-12T06:00:03.060Z,1.6
2019-03-12T06:15:03.256Z,1.6
2019-03-12T06:30:02.909Z,1.8
2019-03-12T06:45:03.206Z,1.8
2019-03-12T07:00:02.501Z,2.1
2019-03-12T07:15:02.817Z,2.4
2019-03-12T07:30:03.371Z,2.6
2019-03-12T07:45:02.657Z,2.8
2019-03-12T08:00:02.934Z,3.1
2019-03-12T08:15:02.511Z,3.4
2019-03-12T08:30:02.931Z,4
2019-03-12T08:45:03.152Z,3.9
2019-03-12T09:00:03.464Z,4.2
2019-03-12T09:15:02.693Z,4
2019-03-12T09:30:03.134Z,4.8
2019-03-12T09:45:02.746Z,4.2
2019-03-12T10:00:14.945Z,4.9
2019-03-12T10:15:02.938Z,5.1
2019-03-12T10:30:03.315Z,5.4
2019-03-12T10:45:02.731Z,6.5
2019-03-12T11:00:03.032Z,5.6
2019-03-12T11:15:03.227Z,6.6
2019-03-12T11:30:02.700Z,5.9
2019-03-12T11:45:12.705Z,5.9
2019-03-12T12:00:02.909Z,7.1
2019-03-12T12:15:03.081Z,7.9
2019-03-12T12:30:03.507Z,8.2
2019-03-12T12:45:02.753Z,8.5
2019-03-12T13:00:03.137Z,8.6
2019-03-12T13:15:03.321Z,8.7
2019-03-12T13:30:02.747Z,9.1
2019-03-12T13:45:03.079Z,9.5
2019-03-12T14:00:02.647Z,8.9
2019-03-12T14:15:03.021Z,9.1
2019-03-12T14:30:03.356Z,9.4
2019-03-12T14:45:02.666Z,9.2
2019-03-12T15:00:02.992Z,9.2
2019-03-12T15:15:03.342Z,9.2
2019-03-12T15:30:02.818Z,9
2019-03-12T15:45:03.238Z,8.8
2019-03-12T16:00:02.503Z,8.4
2019-03-12T16:15:03.103Z,7.9
2019-03-12T16:30:02.847Z,7.2
2019-03-12T16:45:02.977Z,6.7
2019-03-12T17:00:08.112Z,6.4
2019-03-12T17:15:03.203Z,5.6
2019-03-12T17:30:03.347Z,5.2
2019-03-12T17:45:02.651Z,4.8
2019-03-12T18:00:03.195Z,4.5
2019-03-12T18:15:03.341Z,4.4
2019-03-12T18:30:02.733Z,4.2
2019-03-12T18:45:03.043Z,4.2
2019-03-12T19:00:03.365Z,4.2
2019-03-12T19:15:02.810Z,4.1
2019-03-12T19:30:03.217Z,4.1
2019-03-12T19:45:02.503Z,4.1
2019-03-12T20:00:02.921Z,3.9
2019-03-12T20:15:03.087Z,3.7
2019-03-12T20:30:02.495Z,3.6
2019-03-12T20:45:02.888Z,3.5
2019-03-12T21:00:03.085Z,3.4
2019-03-12T21:15:02.517Z,3.4
2019-03-12T21:30:02.919Z,3.1
2019-03-12T21:45:03.055Z,2.9
2019-03-12T22:00:03.444Z,2.8
2019-03-12T22:15:02.723Z,2.8
2019-03-12T22:30:03.030Z,2.8
2019-03-12T22:45:02.587Z,2.8
2019-03-12T23:00:02.822Z,2.9
2019-03-12T23:15:03.309Z,2.6
2019-03-12T23:30:02.651Z,2.8
2019-03-12T23:45:02.859Z,2.9
